Time;durP1;ratioP1;P1;durP2;ratioP2;P2;SDS_P1;SDS_P2;PMS_P1;PMS_P2;Temp;Humidity;BMP_temperature;BMP_pressure;BME280_temperature;BME280_humidity;BME280_pressure;Samples;Min_cycle;Max_cycle;Signal;HPM_P1;HPM_P2
2022/01/29 00:00:33;;;;;;;28.80;10.77;;;9.50;99.90;;;9.66;91.71;102697.94;5072017;28;20052;-61
2022/01/29 00:03:01;;;;;;;31.20;11.35;;;9.40;99.90;;;9.72;91.77;102699.03;5072179;28;20040;-63
2022/01/29 00:05:30;;;;;;;28.23;12.00;;;9.50;99.90;;;9.79;91.66;102700.09;5071279;28;20049;-62
2022/01/29 00:07:58;;;;;;;33.78;10.82;;;9.50;99.90;;;9.80;91.67;102696.59;5072273;28;20478;-62
2022/01/29 00:10:27;;;;;;;31.85;11.80;;;9.50;99.90;;;9.82;91.32;102695.78;5071917;28;20056;-62
2022/01/29 00:12:56;;;;;;;29.55;11.07;;;9.60;99.90;;;9.74;91.71;102686.75;5071696;28;20119;-62
2022/01/29 00:15:26;;;;;;;31.85;11.32;;;9.50;99.90;;;9.69;92.94;102675.16;5071444;28;20114;-62
2022/01/29 00:17:54;;;;;;;32.90;12.43;;;9.50;99.90;;;9.70;93.35;102678.69;5072055;28;20090;-62
2022/01/29 00:20:22;;;;;;;34.88;12.95;;;9.40;99.90;;;9.70;93.47;102669.00;5071705;28;20139;-62
2022/01/29 00:22:51;;;;;;;36.17;12.80;;;9.50;99.90;;;9.76;93.19;102660.34;5071657;28;20040;-62
2022/01/29 00:25:19;;;;;;;48.72;13.23;;;9.50;99.90;;;9.63;94.23;102645.03;5070732;28;20064;-62
2022/01/29 00:27:48;;;;;;;32.25;12.55;;;9.50;99.90;;;9.77;94.54;102652.50;5071567;28;20050;-62
2022/01/29 00:30:18;;;;;;;37.35;12.70;;;9.50;99.90;;;9.68;95.05;102649.56;5071857;28;20123;-62
2022/01/29 00:32:48;;;;;;;34.42;12.32;;;9.50;99.90;;;9.75;95.50;102646.28;5071786;28;20439;-62
2022/01/29 00:35:16;;;;;;;35.60;13.17;;;9.50;99.90;;;9.69;95.49;102646.09;5071806;28;20421;-62
2022/01/29 00:37:44;;;;;;;29.88;11.05;;;9.50;99.90;;;9.75;95.63;102653.28;5071858;28;20056;-63
2022/01/29 00:40:14;;;;;;;34.70;12.23;;;9.50;99.90;;;9.68;96.47;102640.75;5071633;28;20158;-62
2022/01/29 00:42:42;;;;;;;33.10;13.68;;;9.50;99.90;;;9.67;97.31;102645.16;5071634;28;20525;-62
2022/01/29 00:45:11;;;;;;;32.28;12.55;;;9.40;99.90;;;9.63;97.83;102645.94;5071818;28;20057;-62
2022/01/29 00:47:39;;;;;;;31.42;12.95;;;9.40;99.90;;;9.65;98.28;102638.94;5071544;28;20796;-62
2022/01/29 00:50:11;;;;;;;38.25;13.80;;;9.40;99.90;;;9.72;98.41;102639.97;5070445;28;20051;-62
2022/01/29 00:52:40;;;;;;;38.20;12.90;;;9.50;99.90;;;9.70;98.34;102637.31;5072677;28;20508;-62
2022/01/29 00:55:10;;;;;;;24.80;11.98;;;9.40;99.90;;;9.63;98.73;102638.00;5075987;28;20068;-62
2022/01/29 00:57:39;;;;;;;;;;;9.40;99.90;;;9.62;98.83;102633.56;5076020;28;20090;-62
2022/01/29 01:00:12;;;;;;;22.88;12.05;;;9.40;99.90;;;9.55;99.71;102628.97;5075590;28;20018;-62
2022/01/29 01:02:41;;;;;;;24.67;11.50;;;9.30;99.90;;;9.56;99.66;102620.16;5076270;28;20044;-62
2022/01/29 01:05:11;;;;;;;28.67;12.80;;;9.30;99.90;;;9.37;99.52;102586.19;5075701;28;20056;-62
2022/01/29 01:07:41;;;;;;;25.15;12.68;;;9.40;99.90;;;9.60;100.00;102629.97;5074424;28;20397;-62
2022/01/29 01:10:12;;;;;;;25.15;12.43;;;9.40;99.90;;;9.73;100.00;102608.34;5075919;28;20040;-62
2022/01/29 01:12:40;;;;;;;31.17;14.30;;;9.40;99.90;;;9.62;99.64;102612.41;5075180;28;20076;-62
2022/01/29 01:15:10;;;;;;;25.17;13.02;;;9.40;99.90;;;9.67;99.98;102602.88;5074908;28;20140;-62
2022/01/29 01:17:39;;;;;;;32.75;15.73;;;9.40;99.90;;;9.66;100.00;102598.44;5075445;28;20044;-62
2022/01/29 01:20:09;;;;;;;32.10;14.13;;;9.40;99.90;;;9.74;100.00;102593.34;5075045;28;20044;-62
2022/01/29 01:22:39;;;;;;;30.70;14.48;;;9.40;99.90;;;9.71;100.00;102596.84;5075057;28;20074;-62
2022/01/29 01:25:09;;;;;;;39.25;16.17;;;9.40;99.90;;;9.70;100.00;102600.31;5074978;28;20132;-62
2022/01/29 01:27:38;;;;;;;34.90;16.13;;;9.40;99.90;;;9.62;100.00;102596.56;5074989;28;20051;-62
2022/01/29 01:30:07;;;;;;;33.40;16.77;;;9.40;99.90;;;9.69;100.00;102592.34;5073660;28;20131;-62
2022/01/29 01:32:37;;;;;;;33.90;16.05;;;9.40;99.90;;;9.71;100.00;102591.56;5075057;28;20371;-62
2022/01/29 01:35:12;;;;;;;38.58;16.83;;;9.40;99.90;;;9.69;100.00;102587.06;5074889;28;20068;-62
2022/01/29 01:37:47;;;;;;;35.00;15.02;;;9.40;99.90;;;9.64;100.00;102586.94;5074658;28;20509;-62
2022/01/29 01:40:17;;;;;;;38.78;16.60;;;9.40;99.90;;;9.74;100.00;102590.72;5075276;28;20064;-62
2022/01/29 01:42:46;;;;;;;38.80;16.58;;;9.40;99.90;;;9.76;100.00;102589.91;5074947;28;20055;-62
2022/01/29 01:45:15;;;;;;;33.05;14.35;;;9.50;99.90;;;9.72;100.00;102597.69;5073317;28;20401;-62
2022/01/29 01:47:43;;;;;;;30.33;14.43;;;9.50;99.90;;;9.81;100.00;102604.13;5074394;28;20106;-62
2022/01/29 01:50:11;;;;;;;38.95;14.68;;;9.50;99.90;;;9.77;100.00;102581.16;5074237;28;20041;-62
2022/01/29 01:52:41;;;;;;;29.50;13.88;;;9.50;99.90;;;9.80;100.00;102580.31;5074551;28;20037;-62
2022/01/29 01:55:10;;;;;;;31.83;13.60;;;9.50;99.90;;;9.78;100.00;102577.63;5074238;28;20101;-62
2022/01/29 01:57:38;;;;;;;31.60;12.63;;;9.60;99.90;;;9.80;100.00;102564.44;5074308;28;20071;-62
2022/01/29 02:00:08;;;;;;;34.75;12.73;;;9.50;99.90;;;9.84;100.00;102580.44;5074830;28;20064;-62
2022/01/29 02:02:40;;;;;;;32.90;12.88;;;9.60;99.90;;;9.78;100.00;102553.84;5074437;28;20060;-62
2022/01/29 02:05:10;;;;;;;36.88;13.40;;;9.60;99.90;;;9.88;100.00;102571.72;5072771;28;20405;-62
2022/01/29 02:07:39;;;;;;;29.77;12.70;;;9.60;99.90;;;9.89;100.00;102565.56;5073967;28;20052;-62
2022/01/29 02:10:11;;;;;;;36.78;12.80;;;9.60;99.90;;;9.87;100.00;102563.78;5073882;28;20083;-62
2022/01/29 02:12:48;;;;;;;25.88;12.70;;;9.60;99.90;;;9.92;100.00;102565.69;5074201;28;20551;-62
2022/01/29 02:15:17;;;;;;;31.45;12.80;;;9.60;99.90;;;9.99;99.45;102557.03;5073504;28;20107;-62
2022/01/29 02:17:46;;;;;;;33.22;12.63;;;9.70;99.90;;;9.17;99.36;102394.66;5074055;28;20135;-62
2022/01/29 02:20:16;;;;;;;37.72;13.65;;;9.70;99.90;;;9.89;99.77;102556.78;5073706;28;20147;-62
2022/01/29 02:22:47;;;;;;;29.40;11.95;;;9.70;99.90;;;9.88;99.87;102542.66;5074036;28;20048;-62
2022/01/29 02:25:34;;;;;;;32.28;12.50;;;9.60;99.90;;;9.99;99.50;102541.16;5074355;28;20075;-62
2022/01/29 02:28:05;;;;;;;26.20;12.23;;;9.70;99.90;;;9.94;99.91;102532.25;5073843;28;20040;-62
2022/01/29 02:30:38;;;;;;;32.90;12.27;;;9.70;99.90;;;9.99;99.64;102542.91;5072075;28;20512;-61
2022/01/29 02:33:10;;;;;;;35.80;12.23;;;9.70;99.90;;;10.06;99.27;102534.28;5073663;28;20041;-62
2022/01/29 02:35:41;;;;;;;27.27;11.05;;;9.80;99.90;;;10.04;99.07;102526.31;5073602;28;20070;-62
2022/01/29 02:38:12;;;;;;;37.22;11.55;;;9.80;99.90;;;9.99;99.15;102519.13;5073600;28;20053;-62
2022/01/29 02:40:46;;;;;;;33.05;11.90;;;9.80;99.90;;;10.06;99.20;102523.72;5073882;28;20110;-62
2022/01/29 02:43:18;;;;;;;33.97;11.80;;;9.80;99.90;;;9.98;99.33;102512.97;5073498;28;20063;-62
2022/01/29 02:45:48;;;;;;;39.67;12.70;;;9.80;99.90;;;10.01;99.44;102501.53;5073826;28;20044;-62
2022/01/29 02:48:16;;;;;;;27.77;11.82;;;9.80;99.90;;;10.02;99.13;102506.00;5073478;28;20048;-62
2022/01/29 02:50:45;;;;;;;34.05;12.52;;;9.80;99.90;;;9.96;99.69;102493.53;5072999;28;20467;-62
2022/01/29 02:53:15;;;;;;;33.22;12.88;;;9.80;99.90;;;10.07;99.53;102506.09;5073369;28;20044;-62
2022/01/29 02:55:44;;;;;;;35.50;13.02;;;9.80;99.90;;;10.07;99.51;102506.09;5073674;28;20090;-62
2022/01/29 02:58:12;;;;;;;40.50;13.10;;;9.80;99.90;;;10.03;99.47;102495.44;5073568;28;20470;-62
2022/01/29 03:00:41;;;;;;;29.77;11.55;;;9.80;99.90;;;10.03;99.70;102484.88;5073733;28;20113;-62
2022/01/29 03:03:09;;;;;;;35.47;11.27;;;9.80;99.90;;;10.04;100.00;102476.06;5073364;28;20051;-62
2022/01/29 03:05:38;;;;;;;36.95;12.68;;;9.80;99.90;;;10.09;99.84;102472.66;5073045;28;20074;-62
2022/01/29 03:08:06;;;;;;;31.80;11.57;;;9.80;99.90;;;10.12;99.68;102471.03;5073000;28;20040;-62
2022/01/29 03:10:36;;;;;;;37.15;12.27;;;9.80;99.90;;;10.12;99.88;102473.66;5073007;28;20379;-62
2022/01/29 03:13:05;;;;;;;28.38;11.20;;;9.80;99.90;;;10.21;99.60;102494.13;5073302;28;20071;-62
2022/01/29 03:15:34;;;;;;;31.48;11.18;;;9.90;99.90;;;10.18;99.41;102473.78;5071985;28;20061;-62
2022/01/29 03:18:02;;;;;;;28.52;10.85;;;9.90;99.90;;;10.16;99.26;102471.97;5073083;28;20360;-61
2022/01/29 03:20:31;;;;;;;33.28;11.02;;;9.90;99.90;;;10.23;99.29;102466.88;5072631;28;20127;-62
2022/01/29 03:23:00;;;;;;;28.77;10.50;;;9.90;99.90;;;10.32;98.71;102476.75;5088415;28;20135;-62
2022/01/29 03:25:28;;;;;;;33.20;12.15;;;10.00;99.90;;;10.28;98.83;102465.19;5072619;28;20131;-62
2022/01/29 03:27:58;;;;;;;25.70;10.45;;;10.00;99.90;;;10.29;98.60;102467.00;5072494;28;20036;-62
2022/01/29 03:30:26;;;;;;;32.25;10.77;;;10.00;99.90;;;10.30;98.66;102465.25;5072832;28;20486;-62
2022/01/29 03:32:54;;;;;;;30.17;11.10;;;10.00;99.90;;;10.42;98.73;102463.75;5072464;28;20048;-62
2022/01/29 03:35:23;;;;;;;27.77;10.35;;;10.10;99.90;;;10.34;98.03;102453.88;5072624;28;20045;-61
2022/01/29 03:37:51;;;;;;;29.92;9.75;;;10.10;99.90;;;10.28;98.88;102444.03;5072391;28;20154;-62
2022/01/29 03:40:20;;;;;;;29.50;10.68;;;10.00;99.90;;;10.30;99.16;102452.03;5071141;28;20532;-62
2022/01/29 03:42:59;;;;;;;23.02;9.93;;;10.00;99.90;;;10.32;99.12;102445.00;5072854;28;20071;-61
2022/01/29 03:45:29;;;;;;;28.20;10.07;;;10.00;99.90;;;10.24;99.08;102436.91;5071263;28;20076;-62
2022/01/29 03:47:57;;;;;;;23.27;9.77;;;10.00;99.90;;;10.31;98.90;102440.59;5071068;28;20486;-61
2022/01/29 03:50:26;;;;;;;22.23;10.77;;;10.00;99.90;;;10.31;98.69;102437.94;5072201;28;20478;-62
2022/01/29 03:52:54;;;;;;;30.90;10.73;;;10.00;99.90;;;10.24;98.94;102441.31;5072404;28;20543;-62
2022/01/29 03:55:23;;;;;;;24.20;9.55;;;10.00;99.90;;;10.20;99.37;102435.03;5072109;28;20123;-62
2022/01/29 03:57:51;;;;;;;32.33;10.20;;;10.00;99.90;;;10.22;99.38;102427.16;5072031;28;20393;-62
2022/01/29 04:00:19;;;;;;;32.35;10.60;;;10.00;99.90;;;10.24;99.49;102433.38;5072135;28;20124;-61
2022/01/29 04:02:49;;;;;;;30.45;10.60;;;9.90;99.90;;;10.26;99.51;102423.75;5072148;28;20044;-62
2022/01/29 04:05:18;;;;;;;28.95;9.65;;;10.00;99.90;;;10.28;99.57;102419.38;5072334;28;20052;-62
2022/01/29 04:07:46;;;;;;;28.55;9.25;;;10.00;99.90;;;10.21;99.56;102426.28;5071977;28;20067;-62
2022/01/29 04:10:16;;;;;;;30.67;10.13;;;10.00;99.90;;;10.32;99.28;102419.44;5072332;28;20561;-62
2022/01/29 04:12:48;;;;;;;24.48;9.30;;;10.10;99.90;;;10.33;99.10;102423.00;5072512;28;20048;-62
2022/01/29 04:15:17;;;;;;;27.67;9.77;;;10.10;99.90;;;10.38;98.75;102423.97;5072000;28;20083;-62
2022/01/29 04:17:45;;;;;;;24.63;9.15;;;10.10;99.90;;;10.36;98.63;102418.66;5071794;28;20072;-62
2022/01/29 04:20:15;;;;;;;30.65;9.63;;;10.10;99.90;;;10.35;98.67;102427.47;5071654;28;20036;-62
2022/01/29 04:22:43;;;;;;;35.13;9.23;;;10.10;99.90;;;10.36;98.36;102418.66;5072193;28;20055;-62
2022/01/29 04:25:12;;;;;;;29.95;10.00;;;10.10;99.90;;;10.35;98.46;102418.63;5072101;28;20072;-62
2022/01/29 04:27:43;;;;;;;24.92;9.40;;;10.10;99.90;;;10.26;98.61;102415.81;5070806;28;20041;-62
2022/01/29 04:30:23;;;;;;;19.95;9.02;;;10.00;99.90;;;10.41;98.36;102410.84;5071923;28;20117;-61
2022/01/29 04:33:01;;;;;;;25.45;9.00;;;10.10;99.90;;;10.47;98.19;102408.31;5071660;28;20486;-62
2022/01/29 04:35:32;;;;;;;22.30;8.70;;;10.20;99.90;;;10.42;98.19;102412.59;5071492;28;20045;-62
2022/01/29 04:38:00;;;;;;;21.88;9.07;;;10.20;99.90;;;10.54;98.16;102410.22;5071825;28;20044;-62
2022/01/29 04:40:29;;;;;;;16.98;8.57;;;10.20;99.90;;;10.62;97.80;102404.22;5071404;28;20095;-61
2022/01/29 04:42:58;;;;;;;24.73;9.02;;;10.30;99.90;;;10.48;97.43;102402.16;5071322;28;20043;-62
2022/01/29 04:45:26;;;;;;;23.27;8.52;;;10.30;99.90;;;10.53;97.67;102411.09;5071908;28;20064;-62
2022/01/29 04:47:54;;;;;;;22.48;9.65;;;10.30;99.90;;;10.50;97.76;102397.78;5070181;28;20053;-62
2022/01/29 04:50:23;;;;;;;22.75;9.20;;;10.30;99.90;;;10.54;97.84;102404.94;5070112;28;20549;-62
2022/01/29 04:52:52;;;;;;;19.80;8.07;;;10.30;99.90;;;10.62;97.71;102398.94;5071269;28;20041;-62
2022/01/29 04:55:21;;;;;;;24.33;9.50;;;10.30;99.90;;;10.67;97.13;102384.03;5071214;28;20047;-62
2022/01/29 04:57:49;;;;;;;23.63;8.57;;;10.40;99.90;;;10.68;96.95;102385.78;5071212;28;20098;-62
2022/01/29 05:00:20;;;;;;;27.95;9.38;;;10.40;99.90;;;10.52;96.84;102396.97;5071170;28;20119;-62
2022/01/29 05:02:49;;;;;;;19.98;8.68;;;10.30;99.90;;;10.53;96.70;102376.69;5071276;28;20415;-62
2022/01/29 05:05:18;;;;;;;25.52;9.60;;;10.30;99.90;;;10.55;96.95;102382.91;5071093;28;20151;-62
2022/01/29 05:07:47;;;;;;;26.23;9.48;;;10.30;99.90;;;10.42;97.51;102357.94;5071133;28;20048;-62
2022/01/29 05:10:19;;;;;;;29.88;9.38;;;10.30;99.90;;;10.37;97.68;102374.59;5071087;28;20119;-62
2022/01/29 05:12:52;;;;;;;23.55;8.65;;;10.20;99.90;;;10.44;98.18;102382.69;5071427;28;20106;-62
2022/01/29 05:15:28;;;;;;;20.38;9.10;;;10.20;99.90;;;10.48;97.83;102379.25;5070942;28;20044;-62
2022/01/29 05:29:01;;;;;;;22.75;9.43;;;10.30;99.90;;;10.65;97.65;102384.84;5071039;28;20118;-62
2022/01/29 05:31:30;;;;;;;22.83;8.30;;;10.30;99.90;;;10.70;97.14;102391.16;5071524;28;20052;-62
2022/01/29 05:33:59;;;;;;;20.13;7.43;;;10.40;99.90;;;10.70;97.31;102380.56;5071212;28;20056;-62
2022/01/29 05:36:27;;;;;;;23.05;8.45;;;10.40;99.90;;;10.71;96.91;102383.22;5070833;28;20051;-62
2022/01/29 05:38:58;;;;;;;;;;;10.50;99.90;;;10.68;96.86;102382.28;5073335;28;20143;-62
2022/01/29 05:41:28;;;;;;;18.70;7.30;;;10.40;99.90;;;10.70;97.52;102377.91;5073648;28;20031;-62
2022/01/29 05:43:56;;;;;;;24.52;8.07;;;10.40;99.90;;;10.72;96.89;102369.13;5075165;28;20048;-62
2022/01/29 05:46:25;;;;;;;20.55;8.60;;;10.50;99.90;;;10.66;97.18;102363.75;5075244;28;20405;-63
2022/01/29 05:48:53;;;;;;;20.40;9.23;;;10.40;99.90;;;10.78;97.22;102378.97;5074845;28;20041;-62
2022/01/29 05:51:22;;;;;;;20.35;8.40;;;10.50;99.90;;;10.79;97.26;102384.28;5074750;28;20429;-62
2022/01/29 05:53:50;;;;;;;24.02;8.55;;;10.50;99.90;;;10.61;97.23;102356.53;5074986;28;20091;-61
2022/01/29 05:56:18;;;;;;;29.73;8.60;;;10.50;99.90;;;10.75;97.34;102368.28;5074591;28;20132;-62
2022/01/29 05:58:48;;;;;;;20.02;8.45;;;10.50;99.90;;;10.74;97.37;102362.09;5074909;28;20094;-62
2022/01/29 06:01:16;;;;;;;21.55;9.15;;;10.50;99.90;;;10.71;97.47;102362.06;5075015;28;20135;-62
2022/01/29 06:03:45;;;;;;;18.80;8.20;;;10.40;99.90;;;10.75;97.37;102360.34;5074378;28;20048;-62
2022/01/29 06:06:14;;;;;;;22.83;8.10;;;10.50;99.90;;;10.72;97.57;102345.28;5074217;28;20064;-62
2022/01/29 06:08:43;;;;;;;25.38;8.68;;;10.50;99.90;;;10.85;97.43;102351.72;5074127;28;20078;-62
2022/01/29 06:11:11;;;;;;;20.40;7.97;;;10.50;99.90;;;10.83;96.85;102348.16;5074009;28;20075;-62
2022/01/29 06:13:39;;;;;;;19.52;6.90;;;10.50;99.90;;;10.87;97.13;102357.94;5073996;28;20556;-62
2022/01/29 06:16:10;;;;;;;21.23;8.15;;;10.60;99.90;;;10.81;97.07;102353.44;5073839;28;20067;-62
2022/01/29 06:18:40;;;;;;;25.48;8.07;;;10.50;99.90;;;10.81;97.29;102347.25;5074186;28;20045;-62
2022/01/29 06:21:11;;;;;;;26.47;8.53;;;10.50;99.90;;;10.81;97.53;102341.94;5073964;28;20052;-62
2022/01/29 06:23:39;;;;;;;24.00;7.93;;;10.50;99.90;;;10.84;97.27;102339.34;5074415;28;20045;-62
2022/01/29 06:26:13;;;;;;;25.10;8.20;;;10.50;99.90;;;10.80;97.43;102330.47;5074165;28;20459;-62
2022/01/29 06:28:42;;;;;;;24.92;9.05;;;10.60;99.90;;;10.84;97.46;102332.28;5073830;28;20040;-62
2022/01/29 06:31:12;;;;;;;28.38;9.18;;;10.50;99.90;;;10.82;97.48;102336.66;5073701;28;20029;-62
2022/01/29 06:33:40;;;;;;;21.20;8.35;;;10.50;99.90;;;10.84;97.09;102321.72;5073856;28;20040;-62
2022/01/29 06:36:10;;;;;;;24.67;8.50;;;10.60;99.90;;;10.69;97.07;102302.00;5074095;28;20071;-62
2022/01/29 06:38:38;;;;;;;20.80;8.23;;;10.60;99.90;;;10.90;96.88;102334.16;5073985;28;20049;-62
2022/01/29 06:41:06;;;;;;;23.50;8.23;;;10.60;99.90;;;10.90;96.72;102324.47;5073648;28;20382;-62
2022/01/29 06:43:34;;;;;;;20.00;7.65;;;10.60;99.90;;;10.84;97.46;102334.94;5073793;28;20534;-61
2022/01/29 06:46:03;;;;;;;29.88;8.13;;;10.60;99.90;;;10.81;97.38;102326.97;5073512;28;20409;-61
2022/01/29 06:48:34;;;;;;;27.67;8.70;;;10.60;99.90;;;10.84;96.86;102321.72;5073546;28;20075;-61
2022/01/29 06:51:02;;;;;;;30.70;8.30;;;10.60;99.90;;;10.82;97.36;102311.94;5072650;28;20052;-62
2022/01/29 06:53:30;;;;;;;25.60;8.68;;;10.60;99.90;;;10.88;97.22;102312.06;5072607;28;20136;-62
2022/01/29 06:55:59;;;;;;;27.52;7.78;;;10.60;99.90;;;10.86;97.34;102305.84;5073329;28;20056;-62
2022/01/29 06:58:27;;;;;;;21.67;6.90;;;10.60;99.90;;;10.88;97.51;102312.06;5073703;28;20151;-62
2022/01/29 07:01:17;;;;;;;20.45;7.10;;;10.60;99.90;;;10.93;97.00;102291.88;5073485;28;20064;-62
2022/01/29 07:03:47;;;;;;;21.65;7.03;;;10.70;99.90;;;10.89;97.30;102324.44;5074059;28;20143;-62
2022/01/29 07:06:15;;;;;;;20.15;7.60;;;10.70;99.90;;;10.93;97.48;102320.09;5073347;28;20098;-61
2022/01/29 07:08:43;;;;;;;21.48;7.95;;;10.70;99.90;;;10.93;97.16;102310.41;5073539;28;20144;-61
2022/01/29 07:11:12;;;;;;;21.63;6.90;;;10.70;99.90;;;10.92;97.47;102308.59;5073214;28;20044;-61
2022/01/29 07:13:40;;;;;;;20.92;7.28;;;10.70;99.90;;;10.93;97.62;102304.22;5072895;28;20098;-61
2022/01/29 07:16:08;;;;;;;27.20;7.95;;;10.70;99.90;;;10.86;97.91;102304.09;5071443;28;20048;-61
2022/01/29 07:18:37;;;;;;;27.33;7.55;;;10.60;99.90;;;10.89;98.02;102308.56;5072868;28;20502;-61
2022/01/29 07:21:07;;;;;;;18.38;7.63;;;10.60;99.90;;;10.88;98.04;102323.53;5072802;28;20113;-61
2022/01/29 07:23:35;;;;;;;23.50;6.87;;;10.60;99.90;;;10.87;98.47;102315.59;5072872;28;20045;-61
2022/01/29 07:26:04;;;;;;;27.40;7.65;;;10.60;99.90;;;10.81;98.63;102315.47;5072916;28;20590;-62
2022/01/29 07:28:32;;;;;;;27.08;7.72;;;10.60;99.90;;;10.81;98.59;102318.13;5072547;28;20118;-61
2022/01/29 07:31:00;;;;;;;27.95;7.35;;;10.50;99.90;;;10.90;98.68;102316.53;5073281;28;20041;-61
2022/01/29 07:33:29;;;;;;;26.73;7.30;;;10.60;99.90;;;10.90;98.75;102292.69;5072411;28;20049;-61
2022/01/29 07:35:58;;;;;;;24.27;8.02;;;10.60;99.90;;;10.85;98.49;102301.44;5072427;28;20139;-61
2022/01/29 07:38:28;;;;;;;19.60;7.22;;;10.60;99.90;;;10.91;98.61;102288.31;5072731;28;20140;-61
2022/01/29 07:40:57;;;;;;;22.38;7.28;;;10.60;99.90;;;10.91;98.71;102296.25;5072798;28;20044;-61
2022/01/29 07:43:25;;;;;;;28.52;7.78;;;10.60;99.90;;;10.95;98.64;102286.59;5072416;28;20450;-61
2022/01/29 07:45:54;;;;;;;23.40;7.45;;;10.70;99.90;;;10.84;98.83;102283.75;5072082;28;20051;-61
2022/01/29 07:48:23;;;;;;;26.45;7.40;;;10.60;99.90;;;10.78;99.24;102286.31;5072022;28;20045;-61
2022/01/29 07:50:52;;;;;;;21.10;7.20;;;10.60;99.90;;;10.87;99.36;102283.81;5072263;28;20078;-61
2022/01/29 07:53:20;;;;;;;21.48;6.53;;;10.60;99.90;;;10.90;99.10;102279.47;5071955;28;20332;-59
2022/01/29 07:55:50;;;;;;;27.98;8.00;;;10.60;99.90;;;10.87;99.09;102260.00;5071881;28;20534;-59
2022/01/29 07:58:19;;;;;;;37.13;7.40;;;10.60;99.90;;;10.91;99.00;102264.47;5071759;28;20556;-61
2022/01/29 08:00:48;;;;;;;19.92;7.53;;;10.70;99.90;;;10.93;98.93;102252.16;5071885;28;20274;-62
2022/01/29 08:03:16;;;;;;;24.25;7.20;;;10.70;99.90;;;10.84;99.42;102271.41;5071972;28;20060;-60
2022/01/29 08:05:45;;;;;;;28.02;8.18;;;10.60;99.90;;;10.87;99.32;102267.94;5071928;28;20406;-59
2022/01/29 08:08:20;;;;;;;23.73;7.05;;;10.60;99.90;;;10.92;99.19;102254.78;5072074;28;20135;-60
2022/01/29 08:10:52;;;;;;;25.13;7.88;;;10.70;99.90;;;10.82;99.60;102254.63;5071736;28;20489;-60
2022/01/29 08:13:21;;;;;;;23.50;7.45;;;10.60;99.90;;;10.86;99.30;102255.56;5071622;28;20036;-60
2022/01/29 08:15:49;;;;;;;21.65;7.70;;;10.60;99.90;;;10.82;99.62;102249.31;5070140;28;20048;-60
2022/01/29 08:18:17;;;;;;;28.15;7.20;;;10.60;99.90;;;10.88;99.48;102243.22;5071538;28;20045;-59
2022/01/29 08:20:53;;;;;;;20.27;6.55;;;10.60;99.90;;;10.86;99.21;102253.81;5072137;28;20040;-61
2022/01/29 08:23:21;;;;;;;24.15;7.50;;;10.60;99.90;;;10.86;99.45;102258.19;5072148;28;20040;-60
2022/01/29 08:25:51;;;;;;;29.35;7.47;;;10.60;99.90;;;10.88;99.37;102251.16;5071548;28;20048;-61
2022/01/29 08:28:25;;;;;;;24.23;6.47;;;10.60;99.90;;;10.80;98.98;102244.91;5071799;28;20060;-60
2022/01/29 08:30:54;;;;;;;28.00;7.67;;;10.60;99.90;;;10.89;98.92;102245.94;5071828;28;20123;-60
2022/01/29 08:33:22;;;;;;;20.42;6.57;;;10.70;99.90;;;10.88;99.06;102253.81;5072094;28;20411;-60
2022/01/29 08:35:52;;;;;;;25.08;7.55;;;10.60;99.90;;;10.88;99.06;102259.13;5071711;28;20127;-61
2022/01/29 08:38:21;;;;;;;26.58;7.05;;;10.60;99.90;;;10.94;98.41;102253.94;5071546;28;20044;-60
2022/01/29 08:40:52;;;;;;;21.13;6.57;;;10.70;99.90;;;10.94;98.56;102253.06;5071466;28;20094;-60
2022/01/29 08:43:21;;;;;;;16.42;6.30;;;10.70;99.90;;;10.94;98.07;102240.69;5069931;28;20044;-60
2022/01/29 08:45:51;;;;;;;20.10;6.13;;;10.70;99.90;;;10.90;97.99;102238.84;5071514;28;20053;-60
2022/01/29 08:48:20;;;;;;;20.33;6.53;;;10.70;99.90;;;10.95;97.88;102239.84;5072473;28;20083;-60
2022/01/29 08:50:49;;;;;;;19.88;6.32;;;10.80;99.90;;;11.05;97.57;102241.78;5071884;28;20392;-60
2022/01/29 08:53:20;;;;;;;23.30;6.55;;;10.80;99.90;;;10.98;97.65;102231.03;5071310;28;20056;-64
2022/01/29 08:55:48;;;;;;;25.65;7.00;;;10.80;99.90;;;10.92;97.69;102234.47;5071925;28;20040;-60
2022/01/29 08:58:18;;;;;;;22.58;6.68;;;10.70;99.90;;;11.04;97.75;102239.97;5071171;28;20090;-60
2022/01/29 09:00:47;;;;;;;24.60;6.23;;;10.70;99.90;;;11.01;97.76;102234.66;5071917;28;20048;-60
2022/01/29 09:03:18;;;;;;;25.23;6.28;;;10.80;99.90;;;11.00;97.83;102214.31;5071221;28;20043;-61
2022/01/29 09:05:47;;;;;;;;;;;10.80;99.90;;;11.26;97.21;102233.25;5070781;28;20045;-61
2022/01/29 09:08:18;;;;;;;23.63;7.03;;;11.00;99.90;;;11.25;96.33;102219.09;5071217;28;19926;-61
2022/01/29 09:10:46;;;;;;;25.00;6.70;;;11.00;99.90;;;11.32;95.93;102233.34;5071390;28;20448;-60
2022/01/29 09:13:14;;;;;;;27.17;7.47;;;11.10;99.90;;;11.50;95.91;102218.56;5071839;28;20132;-61
2022/01/29 09:15:44;;;;;;;25.98;6.43;;;11.20;99.90;;;11.82;94.86;102237.59;5075045;28;20061;-60
2022/01/29 09:18:13;;;;;;;33.10;6.90;;;11.50;99.90;;;12.17;93.18;102227.41;5075672;28;20071;-60
2022/01/29 09:20:41;;;;;;;20.42;6.55;;;11.80;99.90;;;12.53;91.52;102225.09;5075126;28;20127;-60
2022/01/29 09:23:10;;;;;;;25.85;7.72;;;12.20;99.90;;;12.82;90.28;102234.22;5074965;28;20559;-61
2022/01/29 09:25:40;;;;;;;26.90;7.00;;;12.50;99.90;;;12.99;88.30;102237.03;5074895;28;20083;-61
2022/01/29 09:28:10;;;;;;;25.95;6.93;;;12.70;99.90;;;13.21;86.83;102234.56;5075232;28;20048;-62
2022/01/29 09:30:41;;;;;;;26.00;6.97;;;12.90;99.90;;;13.49;85.53;102223.19;5075177;28;20048;-60
2022/01/29 09:33:11;;;;;;;20.48;6.38;;;13.20;99.90;;;13.75;84.25;102225.09;5074783;28;20544;-60
2022/01/29 09:35:40;;;;;;;18.42;5.65;;;13.40;99.90;;;14.00;82.68;102221.63;5075672;28;20136;-62
2022/01/29 09:38:09;;;;;;;28.80;6.57;;;13.70;99.90;;;14.20;81.14;102219.94;5073480;28;20075;-63
2022/01/29 09:40:39;;;;;;;18.00;5.45;;;13.90;99.90;;;14.17;80.05;102211.94;5074909;28;20371;-63
2022/01/29 09:43:09;;;;;;;21.13;5.78;;;14.00;99.90;;;14.31;80.42;102208.47;5074951;28;20075;-63
2022/01/29 09:45:39;;;;;;;17.60;5.47;;;14.10;99.90;;;14.14;79.88;102183.56;5074729;28;20044;-63
2022/01/29 09:48:07;;;;;;;21.55;6.07;;;14.00;99.90;;;14.16;79.36;102181.78;5074573;28;20072;-64
2022/01/29 09:50:39;;;;;;;21.60;6.03;;;14.00;99.90;;;14.48;78.83;102196.97;5074625;28;20100;-63
2022/01/29 09:53:08;;;;;;;17.45;5.30;;;14.10;99.90;;;14.63;78.33;102197.84;5074516;28;20059;-63
2022/01/29 09:55:37;;;;;;;20.98;6.53;;;14.30;99.90;;;14.73;77.37;102201.41;5074436;28;20124;-63
2022/01/29 09:58:05;;;;;;;18.85;5.43;;;14.40;99.90;;;14.82;76.93;102198.72;5074473;28;20102;-62
2022/01/29 10:00:34;;;;;;;13.27;5.20;;;14.50;99.90;;;14.99;75.76;102188.94;5074371;28;20405;-62
2022/01/29 10:03:19;;;;;;;13.27;5.30;;;14.70;99.90;;;14.82;75.56;102180.97;5074390;28;20079;-62
2022/01/29 10:05:52;;;;;;;13.70;5.30;;;14.60;99.90;;;14.97;75.18;102172.06;5074452;28;20068;-62
2022/01/29 10:08:23;;;;;;;20.02;5.88;;;14.80;99.90;;;15.30;74.25;102199.56;5074584;28;20049;-63
2022/01/29 10:10:53;;;;;;;14.80;5.15;;;15.00;99.90;;;15.38;73.64;102188.84;5074608;28;20113;-63
2022/01/29 10:13:26;;;;;;;;;;;15.10;99.90;;;15.28;73.24;102206.66;5074619;28;20094;-62
2022/01/29 10:16:08;;;;;;;13.00;5.03;;;15.10;99.90;;;15.42;73.01;102213.75;5073871;28;19924;-61
2022/01/29 10:18:37;;;;;;;13.07;4.85;;;15.20;99.90;;;15.23;72.81;102216.44;5072773;28;20063;-63
2022/01/29 10:21:14;;;;;;;11.27;4.63;;;15.00;99.90;;;14.85;73.88;102202.28;5074006;28;20119;-63
2022/01/29 10:23:45;;;;;;;13.85;4.80;;;14.70;99.90;;;14.72;74.55;102204.94;5074361;28;20044;-63
2022/01/29 10:26:28;;;;;;;18.58;5.60;;;14.50;99.90;;;14.56;75.59;102196.06;5072522;28;20064;-64
2022/01/29 10:28:57;;;;;;;12.15;5.57;;;14.30;99.90;;;14.68;76.01;102204.06;5073851;28;20083;-65